sensor_id;sensor_type;location;lat;lon;timestamp;pressure;altitude;pressure_sealevel;temperature;humidity
40794;BME280;26502;51.886;15.604;2023-01-27T00:03:49;101156.61;;;0.73;82.73
40794;BME280;26502;51.886;15.604;2023-01-27T00:09:03;101156.11;;;0.75;82.59
40794;BME280;26502;51.886;15.604;2023-01-27T00:14:12;101158.04;;;0.75;82.69
40794;BME280;26502;51.886;15.604;2023-01-27T00:19:23;101153.84;;;0.76;82.80
40794;BME280;26502;51.886;15.604;2023-01-27T00:24:34;101153.14;;;0.75;82.80
40794;BME280;26502;51.886;15.604;2023-01-27T00:29:43;101148.89;;;0.72;82.65
40794;BME280;26502;51.886;15.604;2023-01-27T00:34:53;101148.86;;;0.70;82.76
40794;BME280;26502;51.886;15.604;2023-01-27T00:40:05;101155.97;;;0.65;82.70
40794;BME280;26502;51.886;15.604;2023-01-27T00:45:16;101166.91;;;0.62;82.62
40794;BME280;26502;51.886;15.604;2023-01-27T00:50:43;101174.69;;;0.56;82.67
40794;BME280;26502;51.886;15.604;2023-01-27T00:55:55;101180.74;;;0.52;82.71
40794;BME280;26502;51.886;15.604;2023-01-27T01:01:09;101182.23;;;0.36;82.47
40794;BME280;26502;51.886;15.604;2023-01-27T01:06:21;101181.32;;;0.34;82.70
40794;BME280;26502;51.886;15.604;2023-01-27T01:11:32;101182.94;;;0.37;82.77
40794;BME280;26502;51.886;15.604;2023-01-27T01:16:43;101182.56;;;0.36;82.77
40794;BME280;26502;51.886;15.604;2023-01-27T01:21:54;101182.86;;;0.32;82.64
40794;BME280;26502;51.886;15.604;2023-01-27T01:27:06;101181.59;;;0.20;82.57
40794;BME280;26502;51.886;15.604;2023-01-27T01:32:18;101186.17;;;0.13;82.87
40794;BME280;26502;51.886;15.604;2023-01-27T01:37:27;101185.06;;;0.10;82.71
40794;BME280;26502;51.886;15.604;2023-01-27T01:42:55;101182.70;;;0.14;82.79
40794;BME280;26502;51.886;15.604;2023-01-27T01:48:09;101180.31;;;0.17;82.74
40794;BME280;26502;51.886;15.604;2023-01-27T01:53:23;101176.96;;;0.16;82.69
40794;BME280;26502;51.886;15.604;2023-01-27T01:58:37;101180.69;;;0.19;82.73
40794;BME280;26502;51.886;15.604;2023-01-27T02:03:55;101182.09;;;0.19;82.67
40794;BME280;26502;51.886;15.604;2023-01-27T02:09:14;101187.07;;;0.13;82.66
40794;BME280;26502;51.886;15.604;2023-01-27T02:14:31;101190.16;;;0.20;82.71
40794;BME280;26502;51.886;15.604;2023-01-27T02:19:52;101182.17;;;0.24;82.63
40794;BME280;26502;51.886;15.604;2023-01-27T02:25:25;101178.41;;;0.18;82.48
40794;BME280;26502;51.886;15.604;2023-01-27T02:30:43;101180.23;;;0.13;82.58
40794;BME280;26502;51.886;15.604;2023-01-27T02:36:05;101180.06;;;0.13;82.70
40794;BME280;26502;51.886;15.604;2023-01-27T02:41:24;101179.21;;;0.13;82.72
40794;BME280;26502;51.886;15.604;2023-01-27T02:46:40;101186.32;;;0.11;82.54
40794;BME280;26502;51.886;15.604;2023-01-27T02:51:51;101188.69;;;0.07;82.70
40794;BME280;26502;51.886;15.604;2023-01-27T02:57:02;101202.17;;;0.09;82.85
40794;BME280;26502;51.886;15.604;2023-01-27T03:02:14;101199.35;;;0.08;82.89
40794;BME280;26502;51.886;15.604;2023-01-27T03:07:29;101205.48;;;0.09;82.94
40794;BME280;26502;51.886;15.604;2023-01-27T03:12:36;101209.00;;;0.10;82.90
40794;BME280;26502;51.886;15.604;2023-01-27T03:17:49;101214.66;;;0.14;82.95
40794;BME280;26502;51.886;15.604;2023-01-27T03:23:21;101215.33;;;0.12;82.90
40794;BME280;26502;51.886;15.604;2023-01-27T03:28:32;101208.63;;;0.18;82.98
40794;BME280;26502;51.886;15.604;2023-01-27T03:34:06;101213.73;;;0.20;82.93
40794;BME280;26502;51.886;15.604;2023-01-27T03:39:21;101204.59;;;0.17;82.71
40794;BME280;26502;51.886;15.604;2023-01-27T03:44:48;101214.06;;;0.00;82.70
40794;BME280;26502;51.886;15.604;2023-01-27T03:50:15;101222.02;;;-0.04;82.80
40794;BME280;26502;51.886;15.604;2023-01-27T03:55:26;101223.76;;;-0.04;82.90
40794;BME280;26502;51.886;15.604;2023-01-27T04:00:37;101213.76;;;0.03;83.02
40794;BME280;26502;51.886;15.604;2023-01-27T04:05:48;101220.11;;;0.07;83.03
40794;BME280;26502;51.886;15.604;2023-01-27T04:11:15;101219.80;;;0.09;83.09
40794;BME280;26502;51.886;15.604;2023-01-27T04:16:44;101220.11;;;0.16;82.96
40794;BME280;26502;51.886;15.604;2023-01-27T04:21:54;101229.09;;;0.20;82.95
40794;BME280;26502;51.886;15.604;2023-01-27T04:27:07;101223.64;;;0.27;82.98
40794;BME280;26502;51.886;15.604;2023-01-27T04:32:18;101224.54;;;0.29;82.88
40794;BME280;26502;51.886;15.604;2023-01-27T04:37:29;101230.95;;;0.35;82.97
40794;BME280;26502;51.886;15.604;2023-01-27T04:42:42;101230.64;;;0.37;82.88
40794;BME280;26502;51.886;15.604;2023-01-27T04:47:55;101233.08;;;0.27;82.73
40794;BME280;26502;51.886;15.604;2023-01-27T04:53:05;101236.50;;;0.24;82.88
40794;BME280;26502;51.886;15.604;2023-01-27T04:58:18;101237.77;;;0.26;82.78
40794;BME280;26502;51.886;15.604;2023-01-27T05:03:28;101237.27;;;0.27;82.96
40794;BME280;26502;51.886;15.604;2023-01-27T05:08:39;101245.09;;;0.24;82.65
40794;BME280;26502;51.886;15.604;2023-01-27T05:13:51;101247.16;;;0.32;82.92
40794;BME280;26502;51.886;15.604;2023-01-27T05:19:02;101249.32;;;0.36;82.62
40794;BME280;26502;51.886;15.604;2023-01-27T05:24:13;101251.05;;;0.35;82.58
40794;BME280;26502;51.886;15.604;2023-01-27T05:29:25;101258.17;;;0.33;82.71
40794;BME280;26502;51.886;15.604;2023-01-27T05:34:35;101254.98;;;0.40;82.84
40794;BME280;26502;51.886;15.604;2023-01-27T05:39:47;101254.82;;;0.42;82.61
40794;BME280;26502;51.886;15.604;2023-01-27T05:44:57;101260.11;;;0.35;82.74
40794;BME280;26502;51.886;15.604;2023-01-27T05:50:10;101258.23;;;0.27;82.78
40794;BME280;26502;51.886;15.604;2023-01-27T05:55:22;101262.11;;;0.20;82.64
40794;BME280;26502;51.886;15.604;2023-01-27T06:00:34;101265.77;;;0.10;82.73
40794;BME280;26502;51.886;15.604;2023-01-27T06:05:55;101267.33;;;0.19;83.13
40794;BME280;26502;51.886;15.604;2023-01-27T06:11:07;101265.30;;;0.22;83.10
40794;BME280;26502;51.886;15.604;2023-01-27T06:16:18;101270.95;;;0.25;82.92
40794;BME280;26502;51.886;15.604;2023-01-27T06:21:31;101270.89;;;0.31;83.12
40794;BME280;26502;51.886;15.604;2023-01-27T06:26:41;101274.41;;;0.32;82.90
40794;BME280;26502;51.886;15.604;2023-01-27T06:31:52;101276.27;;;0.31;82.94
40794;BME280;26502;51.886;15.604;2023-01-27T06:37:03;101279.28;;;0.31;83.09
40794;BME280;26502;51.886;15.604;2023-01-27T06:42:17;101277.74;;;0.33;82.87
40794;BME280;26502;51.886;15.604;2023-01-27T06:47:27;101281.18;;;0.30;82.88
40794;BME280;26502;51.886;15.604;2023-01-27T06:52:38;101283.19;;;0.25;83.05
40794;BME280;26502;51.886;15.604;2023-01-27T06:57:50;101284.73;;;0.16;82.93
40794;BME280;26502;51.886;15.604;2023-01-27T07:03:00;101285.20;;;0.21;83.11
40794;BME280;26502;51.886;15.604;2023-01-27T07:08:11;101285.27;;;0.25;83.14
40794;BME280;26502;51.886;15.604;2023-01-27T07:13:22;101287.96;;;0.29;83.13
40794;BME280;26502;51.886;15.604;2023-01-27T07:18:33;101287.56;;;0.26;83.16
40794;BME280;26502;51.886;15.604;2023-01-27T07:23:43;101294.33;;;0.24;83.21
40794;BME280;26502;51.886;15.604;2023-01-27T07:28:54;101295.50;;;0.21;83.34
40794;BME280;26502;51.886;15.604;2023-01-27T07:34:05;101303.72;;;0.22;83.32
40794;BME280;26502;51.886;15.604;2023-01-27T07:39:15;101309.05;;;0.26;83.38
40794;BME280;26502;51.886;15.604;2023-01-27T07:44:26;101310.19;;;0.31;83.59
40794;BME280;26502;51.886;15.604;2023-01-27T07:49:34;101307.73;;;0.29;83.30
40794;BME280;26502;51.886;15.604;2023-01-27T07:54:45;101307.44;;;0.24;83.36
40794;BME280;26502;51.886;15.604;2023-01-27T07:59:56;101315.48;;;0.33;83.59
40794;BME280;26502;51.886;15.604;2023-01-27T08:05:09;101323.33;;;0.32;83.19
40794;BME280;26502;51.886;15.604;2023-01-27T08:10:21;101329.13;;;0.34;83.41
40794;BME280;26502;51.886;15.604;2023-01-27T08:15:34;101330.16;;;0.43;83.54
40794;BME280;26502;51.886;15.604;2023-01-27T08:20:45;101338.72;;;0.51;83.41
40794;BME280;26502;51.886;15.604;2023-01-27T08:25:59;101344.80;;;0.58;83.44
40794;BME280;26502;51.886;15.604;2023-01-27T08:31:12;101349.23;;;0.62;83.50
40794;BME280;26502;51.886;15.604;2023-01-27T08:36:24;101355.92;;;0.64;83.37
40794;BME280;26502;51.886;15.604;2023-01-27T08:41:37;101354.98;;;0.70;83.59
40794;BME280;26502;51.886;15.604;2023-01-27T08:46:48;101361.65;;;0.71;83.32
40794;BME280;26502;51.886;15.604;2023-01-27T08:51:56;101364.52;;;0.76;83.47
40794;BME280;26502;51.886;15.604;2023-01-27T08:57:06;101364.39;;;0.77;83.36
40794;BME280;26502;51.886;15.604;2023-01-27T09:02:16;101367.44;;;0.81;83.65
40794;BME280;26502;51.886;15.604;2023-01-27T09:07:32;101365.88;;;0.82;83.64
40794;BME280;26502;51.886;15.604;2023-01-27T09:12:43;101367.42;;;0.81;83.57
40794;BME280;26502;51.886;15.604;2023-01-27T09:17:53;101368.46;;;0.89;83.68
40794;BME280;26502;51.886;15.604;2023-01-27T09:23:03;101367.35;;;0.86;83.26
40794;BME280;26502;51.886;15.604;2023-01-27T09:28:18;101367.17;;;0.86;83.29
40794;BME280;26502;51.886;15.604;2023-01-27T09:33:29;101369.09;;;0.96;83.69
40794;BME280;26502;51.886;15.604;2023-01-27T09:38:45;101370.74;;;1.00;83.54
40794;BME280;26502;51.886;15.604;2023-01-27T09:44:28;101373.64;;;1.05;83.75
40794;BME280;26502;51.886;15.604;2023-01-27T09:50:12;101362.17;;;1.10;83.25
40794;BME280;26502;51.886;15.604;2023-01-27T09:55:39;101360.42;;;1.10;83.50
40794;BME280;26502;51.886;15.604;2023-01-27T10:00:57;101360.65;;;1.13;83.37
40794;BME280;26502;51.886;15.604;2023-01-27T10:06:24;101356.64;;;1.13;83.41
40794;BME280;26502;51.886;15.604;2023-01-27T10:11:43;101360.42;;;1.10;83.42
40794;BME280;26502;51.886;15.604;2023-01-27T10:17:13;101360.55;;;1.08;83.37
40794;BME280;26502;51.886;15.604;2023-01-27T10:22:39;101358.67;;;1.10;83.40
40794;BME280;26502;51.886;15.604;2023-01-27T10:27:57;101361.73;;;1.14;83.62
40794;BME280;26502;51.886;15.604;2023-01-27T10:33:16;101365.28;;;1.18;83.23
40794;BME280;26502;51.886;15.604;2023-01-27T10:38:36;101369.11;;;1.16;83.39
40794;BME280;26502;51.886;15.604;2023-01-27T10:44:07;101374.20;;;1.17;83.76
40794;BME280;26502;51.886;15.604;2023-01-27T10:49:23;101380.04;;;1.21;83.56
40794;BME280;26502;51.886;15.604;2023-01-27T10:54:41;101379.52;;;1.22;83.36
40794;BME280;26502;51.886;15.604;2023-01-27T11:00:02;101385.15;;;1.24;83.33
40794;BME280;26502;51.886;15.604;2023-01-27T11:05:20;101388.13;;;1.24;83.48
40794;BME280;26502;51.886;15.604;2023-01-27T11:10:37;101383.83;;;1.28;83.51
40794;BME280;26502;51.886;15.604;2023-01-27T11:16:22;101378.90;;;1.27;83.60
40794;BME280;26502;51.886;15.604;2023-01-27T11:21:35;101379.11;;;1.29;83.49
40794;BME280;26502;51.886;15.604;2023-01-27T11:26:52;101383.17;;;1.31;83.32
40794;BME280;26502;51.886;15.604;2023-01-27T11:32:15;101384.96;;;1.33;83.53
40794;BME280;26502;51.886;15.604;2023-01-27T11:37:31;101382.17;;;1.34;83.32
40794;BME280;26502;51.886;15.604;2023-01-27T11:42:42;101381.52;;;1.37;83.44
40794;BME280;26502;51.886;15.604;2023-01-27T11:47:56;101388.50;;;1.46;83.33
40794;BME280;26502;51.886;15.604;2023-01-27T11:53:16;101381.41;;;1.51;83.22
40794;BME280;26502;51.886;15.604;2023-01-27T11:58:33;101380.47;;;1.58;83.36
40794;BME280;26502;51.886;15.604;2023-01-27T12:03:51;101379.40;;;1.57;83.25
40794;BME280;26502;51.886;15.604;2023-01-27T12:09:08;101367.93;;;1.52;83.40
40794;BME280;26502;51.886;15.604;2023-01-27T12:14:38;101368.84;;;1.53;83.13
40794;BME280;26502;51.886;15.604;2023-01-27T12:19:48;101367.91;;;1.50;83.33
40794;BME280;26502;51.886;15.604;2023-01-27T12:25:03;101366.36;;;1.52;83.23
40794;BME280;26502;51.886;15.604;2023-01-27T12:30:22;101366.62;;;1.57;83.32
40794;BME280;26502;51.886;15.604;2023-01-27T12:35:35;101366.01;;;1.51;83.24
40794;BME280;26502;51.886;15.604;2023-01-27T12:40:47;101370.70;;;1.49;82.96
40794;BME280;26502;51.886;15.604;2023-01-27T12:46:31;101375.02;;;1.45;83.20
40794;BME280;26502;51.886;15.604;2023-01-27T12:51:49;101374.61;;;1.42;83.38
40794;BME280;26502;51.886;15.604;2023-01-27T12:57:04;101377.23;;;1.42;83.35
40794;BME280;26502;51.886;15.604;2023-01-27T13:02:21;101370.95;;;1.43;82.98
40794;BME280;26502;51.886;15.604;2023-01-27T13:07:37;101371.92;;;1.50;83.34
40794;BME280;26502;51.886;15.604;2023-01-27T13:12:52;101379.38;;;1.56;83.41
40794;BME280;26502;51.886;15.604;2023-01-27T13:18:17;101377.49;;;1.59;83.23
40794;BME280;26502;51.886;15.604;2023-01-27T13:23:31;101377.13;;;1.58;83.02
40794;BME280;26502;51.886;15.604;2023-01-27T13:28:49;101372.80;;;1.61;83.02
40794;BME280;26502;51.886;15.604;2023-01-27T13:34:03;101368.34;;;1.66;83.10
40794;BME280;26502;51.886;15.604;2023-01-27T13:39:22;101372.55;;;1.66;82.98
40794;BME280;26502;51.886;15.604;2023-01-27T13:44:34;101377.91;;;1.63;82.94
40794;BME280;26502;51.886;15.604;2023-01-27T13:49:48;101383.52;;;1.62;82.93
40794;BME280;26502;51.886;15.604;2023-01-27T13:55:00;101382.45;;;1.62;82.95
40794;BME280;26502;51.886;15.604;2023-01-27T14:00:19;101388.61;;;1.65;82.84
40794;BME280;26502;51.886;15.604;2023-01-27T14:05:31;101389.38;;;1.68;82.81
40794;BME280;26502;51.886;15.604;2023-01-27T14:11:00;101390.88;;;1.64;82.89
40794;BME280;26502;51.886;15.604;2023-01-27T14:16:21;101390.40;;;1.55;82.65
40794;BME280;26502;51.886;15.604;2023-01-27T14:21:41;101387.93;;;1.55;82.62
40794;BME280;26502;51.886;15.604;2023-01-27T14:26:55;101388.02;;;1.60;82.77
40794;BME280;26502;51.886;15.604;2023-01-27T14:32:17;101384.16;;;1.60;82.88
40794;BME280;26502;51.886;15.604;2023-01-27T14:37:35;101390.46;;;1.60;82.56
40794;BME280;26502;51.886;15.604;2023-01-27T14:43:01;101398.46;;;1.56;82.74
40794;BME280;26502;51.886;15.604;2023-01-27T14:48:41;101405.65;;;1.57;82.63
40794;BME280;26502;51.886;15.604;2023-01-27T14:54:13;101414.05;;;1.56;82.51
40794;BME280;26502;51.886;15.604;2023-01-27T14:59:39;101423.29;;;1.54;82.52
40794;BME280;26502;51.886;15.604;2023-01-27T15:04:59;101437.05;;;1.50;82.47
40794;BME280;26502;51.886;15.604;2023-01-27T15:10:27;101437.30;;;1.44;82.51
40794;BME280;26502;51.886;15.604;2023-01-27T15:16:09;101445.73;;;1.45;82.72
40794;BME280;26502;51.886;15.604;2023-01-27T15:21:34;101458.18;;;1.46;82.61
40794;BME280;26502;51.886;15.604;2023-01-27T15:26:50;101459.27;;;1.49;82.66
40794;BME280;26502;51.886;15.604;2023-01-27T15:32:33;101460.28;;;1.47;82.70
40794;BME280;26502;51.886;15.604;2023-01-27T15:38:12;101459.48;;;1.42;82.27
40794;BME280;26502;51.886;15.604;2023-01-27T15:43:24;101456.24;;;1.36;82.29
40794;BME280;26502;51.886;15.604;2023-01-27T15:48:38;101464.86;;;1.38;82.28
40794;BME280;26502;51.886;15.604;2023-01-27T15:53:51;101470.80;;;1.38;82.20
40794;BME280;26502;51.886;15.604;2023-01-27T15:59:08;101479.52;;;1.36;82.45
40794;BME280;26502;51.886;15.604;2023-01-27T16:04:26;101482.04;;;1.30;82.36
40794;BME280;26502;51.886;15.604;2023-01-27T16:09:43;101476.66;;;1.23;82.03
40794;BME280;26502;51.886;15.604;2023-01-27T16:20:32;101483.27;;;1.21;82.40
40794;BME280;26502;51.886;15.604;2023-01-27T16:25:49;101486.80;;;1.14;82.18
40794;BME280;26502;51.886;15.604;2023-01-27T16:31:05;101484.34;;;1.13;82.36
40794;BME280;26502;51.886;15.604;2023-01-27T16:36:22;101486.47;;;1.14;82.17
40794;BME280;26502;51.886;15.604;2023-01-27T16:41:38;101490.08;;;1.12;82.24
40794;BME280;26502;51.886;15.604;2023-01-27T16:46:52;101500.76;;;1.12;82.43
40794;BME280;26502;51.886;15.604;2023-01-27T16:52:05;101510.08;;;1.05;82.08
40794;BME280;26502;51.886;15.604;2023-01-27T16:57:46;101509.90;;;1.05;82.56
40794;BME280;26502;51.886;15.604;2023-01-27T17:02:59;101514.65;;;1.06;82.12
40794;BME280;26502;51.886;15.604;2023-01-27T17:08:22;101518.08;;;1.02;82.07
40794;BME280;26502;51.886;15.604;2023-01-27T17:13:45;101527.43;;;0.98;82.25
40794;BME280;26502;51.886;15.604;2023-01-27T17:19:07;101527.30;;;1.01;82.22
40794;BME280;26502;51.886;15.604;2023-01-27T17:24:22;101535.84;;;1.07;82.46
40794;BME280;26502;51.886;15.604;2023-01-27T17:29:37;101535.58;;;1.12;82.39
40794;BME280;26502;51.886;15.604;2023-01-27T17:34:51;101539.34;;;1.16;82.44
40794;BME280;26502;51.886;15.604;2023-01-27T17:40:11;101542.42;;;1.21;82.44
40794;BME280;26502;51.886;15.604;2023-01-27T17:45:26;101541.84;;;1.27;82.61
40794;BME280;26502;51.886;15.604;2023-01-27T17:50:43;101543.36;;;1.25;82.42
40794;BME280;26502;51.886;15.604;2023-01-27T17:55:59;101549.40;;;1.21;82.56
40794;BME280;26502;51.886;15.604;2023-01-27T18:01:15;101554.10;;;1.11;82.74
40794;BME280;26502;51.886;15.604;2023-01-27T18:06:31;101555.31;;;1.02;82.67
40794;BME280;26502;51.886;15.604;2023-01-27T18:11:53;101555.77;;;0.99;82.87
40794;BME280;26502;51.886;15.604;2023-01-27T18:17:22;101557.27;;;1.03;82.66
40794;BME280;26502;51.886;15.604;2023-01-27T18:22:45;101558.94;;;1.08;82.91
40794;BME280;26502;51.886;15.604;2023-01-27T18:28:08;101561.34;;;1.14;82.99
40794;BME280;26502;51.886;15.604;2023-01-27T18:33:23;101561.45;;;1.19;82.75
40794;BME280;26502;51.886;15.604;2023-01-27T18:38:47;101568.01;;;1.15;83.04
40794;BME280;26502;51.886;15.604;2023-01-27T18:44:03;101569.33;;;1.11;82.73
40794;BME280;26502;51.886;15.604;2023-01-27T18:49:21;101579.05;;;1.07;82.79
40794;BME280;26502;51.886;15.604;2023-01-27T18:54:35;101579.53;;;1.06;83.32
40794;BME280;26502;51.886;15.604;2023-01-27T18:59:48;101587.65;;;1.00;82.97
40794;BME280;26502;51.886;15.604;2023-01-27T19:05:05;101594.76;;;0.97;83.08
40794;BME280;26502;51.886;15.604;2023-01-27T19:10:27;101592.55;;;0.92;83.05
40794;BME280;26502;51.886;15.604;2023-01-27T19:15:41;101590.98;;;0.85;82.93
40794;BME280;26502;51.886;15.604;2023-01-27T19:20:59;101593.53;;;0.81;83.31
40794;BME280;26502;51.886;15.604;2023-01-27T19:26:17;101600.53;;;0.81;83.20
40794;BME280;26502;51.886;15.604;2023-01-27T19:31:31;101612.31;;;0.76;83.18
40794;BME280;26502;51.886;15.604;2023-01-27T19:36:45;101617.63;;;0.72;83.33
40794;BME280;26502;51.886;15.604;2023-01-27T19:41:58;101618.07;;;0.68;83.02
40794;BME280;26502;51.886;15.604;2023-01-27T19:47:14;101616.98;;;0.67;83.20
40794;BME280;26502;51.886;15.604;2023-01-27T19:52:31;101623.48;;;0.61;83.15
40794;BME280;26502;51.886;15.604;2023-01-27T19:57:46;101625.75;;;0.61;83.14
40794;BME280;26502;51.886;15.604;2023-01-27T20:03:04;101626.29;;;0.61;83.34
40794;BME280;26502;51.886;15.604;2023-01-27T20:08:21;101629.38;;;0.58;83.30
40794;BME280;26502;51.886;15.604;2023-01-27T20:13:33;101630.95;;;0.58;83.29
40794;BME280;26502;51.886;15.604;2023-01-27T20:18:50;101633.77;;;0.59;83.34
40794;BME280;26502;51.886;15.604;2023-01-27T20:24:04;101639.81;;;0.64;83.40
40794;BME280;26502;51.886;15.604;2023-01-27T20:29:18;101630.86;;;0.69;83.41
40794;BME280;26502;51.886;15.604;2023-01-27T20:34:32;101635.77;;;0.70;83.37
40794;BME280;26502;51.886;15.604;2023-01-27T20:40:11;101637.73;;;0.72;83.36
40794;BME280;26502;51.886;15.604;2023-01-27T20:45:25;101641.98;;;0.67;83.25
40794;BME280;26502;51.886;15.604;2023-01-27T20:50:41;101637.94;;;0.65;83.49
40794;BME280;26502;51.886;15.604;2023-01-27T20:55:59;101629.61;;;0.69;83.29
40794;BME280;26502;51.886;15.604;2023-01-27T21:01:13;101632.79;;;0.70;83.19
40794;BME280;26502;51.886;15.604;2023-01-27T21:06:31;101636.64;;;0.63;82.91
40794;BME280;26502;51.886;15.604;2023-01-27T21:11:50;101637.92;;;0.57;82.89
40794;BME280;26502;51.886;15.604;2023-01-27T21:17:02;101630.85;;;0.54;82.78
40794;BME280;26502;51.886;15.604;2023-01-27T21:22:16;101627.36;;;0.47;82.71
40794;BME280;26502;51.886;15.604;2023-01-27T21:27:27;101633.46;;;0.39;82.65
40794;BME280;26502;51.886;15.604;2023-01-27T21:32:40;101634.98;;;0.30;82.61
40794;BME280;26502;51.886;15.604;2023-01-27T21:37:53;101633.79;;;0.24;82.49
40794;BME280;26502;51.886;15.604;2023-01-27T21:43:11;101634.36;;;0.19;82.54
40794;BME280;26502;51.886;15.604;2023-01-27T21:48:39;101641.72;;;0.20;82.43
40794;BME280;26502;51.886;15.604;2023-01-27T21:53:56;101634.73;;;0.20;82.34
40794;BME280;26502;51.886;15.604;2023-01-27T21:59:07;101637.80;;;0.17;82.39
40794;BME280;26502;51.886;15.604;2023-01-27T22:04:18;101632.83;;;0.21;82.41
40794;BME280;26502;51.886;15.604;2023-01-27T22:09:29;101628.59;;;0.19;82.32
40794;BME280;26502;51.886;15.604;2023-01-27T22:14:39;101631.50;;;0.17;82.38
40794;BME280;26502;51.886;15.604;2023-01-27T22:19:50;101629.55;;;0.16;82.39
40794;BME280;26502;51.886;15.604;2023-01-27T22:25:02;101631.55;;;0.05;81.98
40794;BME280;26502;51.886;15.604;2023-01-27T22:30:15;101632.23;;;-0.03;82.05
40794;BME280;26502;51.886;15.604;2023-01-27T22:35:27;101636.83;;;-0.07;81.96
40794;BME280;26502;51.886;15.604;2023-01-27T22:40:38;101640.03;;;-0.05;81.90
40794;BME280;26502;51.886;15.604;2023-01-27T22:45:51;101641.39;;;-0.06;82.00
40794;BME280;26502;51.886;15.604;2023-01-27T22:51:06;101642.09;;;-0.06;81.86
40794;BME280;26502;51.886;15.604;2023-01-27T22:56:16;101640.31;;;-0.07;81.57
40794;BME280;26502;51.886;15.604;2023-01-27T23:01:27;101642.86;;;-0.10;81.50
40794;BME280;26502;51.886;15.604;2023-01-27T23:06:37;101642.15;;;-0.17;81.54
40794;BME280;26502;51.886;15.604;2023-01-27T23:11:47;101639.83;;;-0.19;81.48
40794;BME280;26502;51.886;15.604;2023-01-27T23:16:58;101638.98;;;-0.25;81.62
40794;BME280;26502;51.886;15.604;2023-01-27T23:22:07;101640.64;;;-0.28;81.60
40794;BME280;26502;51.886;15.604;2023-01-27T23:27:17;101636.67;;;-0.26;81.51
40794;BME280;26502;51.886;15.604;2023-01-27T23:32:28;101635.42;;;-0.27;81.38
40794;BME280;26502;51.886;15.604;2023-01-27T23:37:35;101633.39;;;-0.31;81.22
40794;BME280;26502;51.886;15.604;2023-01-27T23:42:46;101630.69;;;-0.34;81.30
40794;BME280;26502;51.886;15.604;2023-01-27T23:47:56;101629.52;;;-0.39;81.21
40794;BME280;26502;51.886;15.604;2023-01-27T23:53:07;101631.23;;;-0.40;81.16
40794;BME280;26502;51.886;15.604;2023-01-27T23:58:19;101633.88;;;-0.45;80.99
